WetterOnline ( https://www.wetteronline.de )

Wetter aktuell Potsdam

Aktuelles Wetter: Potsdam (100m)

6-stündlich | Neueste Meldungen
Ortszeit Temperatur Wetter
Sa, 25.06. 8:00 21.0° C bewölkt
Sa, 25.06. 2:00 19.3° C wolkig
Fr, 24.06. 20:00 24.5° C bedeckt
Fr, 24.06. 14:00 30.6° C leicht bewölkt
Fr, 24.06. 8:00 20.6° C wolkenlos
Fr, 24.06. 2:00 19.3° C wolkenlos
Do, 23.06. 20:00 27.4° C wolkenlos
Do, 23.06. 14:00 29.6° C wolkenlos
Ortszeit Temperatur Wetter
Sa, 25.06. 12:00 24.7° C bedeckt
Sa, 25.06. 11:40 24.7° C bedeckt
Sa, 25.06. 11:30 24.3° C bedeckt
Sa, 25.06. 11:20 24.3° C bedeckt
Sa, 25.06. 11:10 24.0° C bedeckt
Sa, 25.06. 11:00 24.3° C bedeckt
Sa, 25.06. 10:50 24.3° C bedeckt
Sa, 25.06. 10:30 23.9° C bedeckt
Sa, 25.06. 10:00 23.0° C bedeckt
Sa, 25.06. 9:30 22.0° C wolkig
Sa, 25.06. 9:00 21.5° C bewölkt
Ortszeit Relative Feuchte Sichtweite
Sa, 25.06. 8:00 76% 22 km
Sa, 25.06. 2:00 79% 25 km
Fr, 24.06. 20:00 54% 55 km
Fr, 24.06. 14:00 26% 55 km
Fr, 24.06. 8:00 60% 60 km
Fr, 24.06. 2:00 64% >70 km
Do, 23.06. 20:00 29% >70 km
Do, 23.06. 14:00 28% 60 km
Ortszeit Relative Feuchte Sichtweite
Sa, 25.06. 12:00 61% 55 km
Sa, 25.06. 11:40 61% -
Sa, 25.06. 11:30 64% 35 km
Sa, 25.06. 11:20 64% -
Sa, 25.06. 11:10 65% -
Sa, 25.06. 11:00 66% 23 km
Sa, 25.06. 10:50 66% -
Sa, 25.06. 10:30 66% 35 km
Sa, 25.06. 10:00 69% 23 km
Sa, 25.06. 9:30 72% 24 km
Sa, 25.06. 9:00 76% 23 km
Ortszeit Niederschlagsmenge Niederschlagsart
Sa, 25.06. 8:00 0.2 l/m2 in 12 Std. -
Sa, 25.06. 2:00 0.2 l/m2 in 6 Std. Regen
Fr, 24.06. 20:00 0.0 l/m2 in 12 Std. -
Fr, 24.06. 14:00 0.0 l/m2 in 6 Std. -
Fr, 24.06. 8:00 0.0 l/m2 in 12 Std. -
Fr, 24.06. 2:00 0.0 l/m2 in 6 Std. -
Do, 23.06. 20:00 0.0 l/m2 in 12 Std. -
Do, 23.06. 14:00 0.0 l/m2 in 6 Std. -
Ortszeit Niederschlagsmenge Niederschlagsart
Sa, 25.06. 12:00 0.0 l/m2 in 1 Std. -
Sa, 25.06. 11:40 keine Meldung -
Sa, 25.06. 11:30 0.0 l/m2 in 1 Std. -
Sa, 25.06. 11:20 keine Meldung -
Sa, 25.06. 11:10 keine Meldung -
Sa, 25.06. 11:00 0.0 l/m2 in 1 Std. -
Sa, 25.06. 10:50 keine Meldung -
Sa, 25.06. 10:30 0.0 l/m2 in 1 Std. -
Sa, 25.06. 10:00 0.0 l/m2 in 1 Std. -
Sa, 25.06. 9:30 0.0 l/m2 in 1 Std. -
Sa, 25.06. 9:00 0.0 l/m2 in 1 Std. -
Ortszeit Stärke Spitze Richtung
km/h Bft. km/h Grad Sektor
Sa, 25.06. 8:00 2 1 20 330° NW
Sa, 25.06. 2:00 13 3 22 150° SO
Fr, 24.06. 20:00 6 1 39 150° SO
Fr, 24.06. 14:00 17 3 43 130° SO
Fr, 24.06. 8:00 15 3 28 120° SO
Fr, 24.06. 2:00 19 3 37 90° O
Do, 23.06. 20:00 7 2 32 90° O
Do, 23.06. 14:00 11 2 25 350° N
Ortszeit Stärke Spitze Richtung
km/h Bft. km/h Grad Sektor
Sa, 25.06. 12:00 11 2 19 280° W
Sa, 25.06. 11:40 11 2 - 270° W
Sa, 25.06. 11:30 7 2 13 270° W
Sa, 25.06. 11:20 7 2 - 270° W
Sa, 25.06. 11:10 7 2 - 240° SW
Sa, 25.06. 11:00 7 2 14 250° W
Sa, 25.06. 10:50 7 2 - 250° W
Sa, 25.06. 10:30 4 1 11 300° NW
Sa, 25.06. 10:00 4 1 7 280° W
Sa, 25.06. 9:30 4 1 7 210° SW
Sa, 25.06. 9:00 4 1 7 250° W
Ortszeit Untergrenze Bedeckung Gattung
total tief tief mittel hoch
Sa, 25.06. 8:00 6600 m 8/8 4/8 - - -
Sa, 25.06. 2:00 1500 m 8/8 1/8 - - -
Fr, 24.06. 20:00 3000 m 8/8 8/8 - - -
Fr, 24.06. 14:00 8100 m 8/8 0/8 - - -
Fr, 24.06. 8:00 - 0/8 0/8 - - -
Fr, 24.06. 2:00 - 0/8 0/8 - - -
Do, 23.06. 20:00 - 0/8 0/8 - - -
Do, 23.06. 14:00 - 0/8 0/8 - - -
Ortszeit Bedeckungsgrad in Achtel und Wolkenuntergrenze
Sa, 25.06. 12:00 8(4200m)
Sa, 25.06. 11:40 8
Sa, 25.06. 11:30 8(4500m)
Sa, 25.06. 11:20 8(4500m)
Sa, 25.06. 11:10 8
Sa, 25.06. 11:00 3(3900m) 8(4800m)
Sa, 25.06. 10:50 3(3900m) 8(4800m)
Sa, 25.06. 10:30 8(4200m) 8(4800m)
Sa, 25.06. 10:00 8(4500m) 8(5100m) 8(8400m)
Sa, 25.06. 9:30 1(3300m) 8(8400m) 8(10500m)
Sa, 25.06. 9:00 1(3300m) 7(4800m) 8(9000m)
Ortszeit Luftdruck NN (hPa) Tendenz (hPa in 3 Std.)
Sa, 25.06. 8:00 1011 + 1,6
Sa, 25.06. 2:00 1009 + 0,8
Fr, 24.06. 20:00 1007 + 1,0
Fr, 24.06. 14:00 1007 - 1,7
Fr, 24.06. 8:00 1011 - 0,5
Fr, 24.06. 2:00 1012 - 0,7
Do, 23.06. 20:00 1012 - 0,6
Do, 23.06. 14:00 1014 - 1,0
Ortszeit Luftdruck NN (hPa) Tendenz (hPa in 3 Std.)
Sa, 25.06. 12:00 1012 + 0,4
Sa, 25.06. 11:40 1012 keine Meldung
Sa, 25.06. 11:30 1012 + 0,7
Sa, 25.06. 11:20 1012 keine Meldung
Sa, 25.06. 11:10 1012 keine Meldung
Sa, 25.06. 11:00 1012 + 0,9
Sa, 25.06. 10:50 1012 keine Meldung
Sa, 25.06. 10:30 1012 + 0,9
Sa, 25.06. 10:00 1011 + 0,9
Sa, 25.06. 9:30 1012 + 1,3
Sa, 25.06. 9:00 1011 + 1,6
Ortszeit Schneehöhe (cm)
Sa, 25.06. 8:00 0
Sa, 25.06. 2:00 0
Fr, 24.06. 20:00 0
Fr, 24.06. 14:00 0
Fr, 24.06. 8:00 0
Fr, 24.06. 2:00 0
Do, 23.06. 20:00 0
Do, 23.06. 14:00 0
Ortszeit Schneehöhe (cm)
Sa, 25.06. 12:00 0
Sa, 25.06. 11:40 0
Sa, 25.06. 11:30 0
Sa, 25.06. 11:20 0
Sa, 25.06. 11:10 0
Sa, 25.06. 11:00 0
Sa, 25.06. 10:50 0
Sa, 25.06. 10:30 0
Sa, 25.06. 10:00 0
Sa, 25.06. 9:30 0
Sa, 25.06. 9:00 0
Link zu dieser Seite / Seite empfehlen

Das Wetter in ...